La Coruna, Spain
Current Conditions -  °F | °C
As of 1:00 AM on Saturday 22 Nov 2014 (Local Time) from LECO Reporting Station
Light Rain Light Rain  
Wind Chill: 59°   Ceiling: Unl
Heat Index: 59°   Visibility: 6mi
Dew Point: 57°   Wind: 3mph
Humidity: 94%   Direction: 190°S
Pressure: 29.88"   Gusts: NA
Location:  43.37°N, 8.4°W
Report Text: LECO 220000Z 19003KT 9999 -RA SCT025 15/14 Q1012 NOSIG
Loading
Personal Weather Stations






























Interactive Weather Map New forecast layout! Learn more

10-Day Weather Forecast

Advertisements
Track Severe Weather on mobile